Time;durP1;ratioP1;P1;durP2;ratioP2;P2;SDS_P1;SDS_P2;PMS_P1;PMS_P2;Temp;Humidity;BMP_temperature;BMP_pressure;BME280_temperature;BME280_humidity;BME280_pressure;Samples;Min_cycle;Max_cycle;Signal;HPM_P1;HPM_P2
2021/10/21 00:01:39;;;;;;;5.75;3.77;;;;;;;16.52;45.13;97186.03;1689575;82;21408;-85
2021/10/21 00:04:04;;;;;;;10.00;5.25;;;;;;;16.58;44.90;97180.58;1747855;81;21507;-82
2021/10/21 00:06:35;;;;;;;7.20;5.25;;;;;;;16.61;44.85;97189.47;1747237;81;20937;-85
2021/10/21 00:09:00;;;;;;;4.97;3.83;;;;;;;16.64;44.70;97173.73;1747946;82;21008;-81
2021/10/21 00:11:35;;;;;;;5.37;4.20;;;;;;;16.64;44.32;97172.38;1747689;81;21421;-82
2021/10/21 00:13:58;;;;;;;8.08;4.45;;;;;;;16.69;44.15;97169.23;1743868;82;20960;-85
2021/10/21 00:16:26;;;;;;;7.45;3.50;;;;;;;16.68;44.77;97163.50;1747759;81;21279;-85
2021/10/21 00:18:54;;;;;;;7.05;5.25;;;;;;;16.83;43.35;97162.84;1747660;81;21001;-85
2021/10/21 00:21:20;;;;;;;6.37;4.67;;;;;;;16.75;44.19;97150.07;1747845;81;20953;-85
2021/10/21 00:23:56;;;;;;;;;;;;;;;;;;;;;
2021/10/21 00:26:16;;;;;;;5.35;4.15;;;;;;;16.59;44.31;97145.26;1745560;81;21455;-82
2021/10/21 00:28:49;;;;;;;5.85;4.15;;;;;;;16.52;44.49;97134.08;1748036;82;21994;-85
2021/10/21 00:31:12;;;;;;;6.62;4.00;;;;;;;16.50;44.27;97125.42;1746748;81;20929;-85
2021/10/21 00:33:40;;;;;;;8.45;4.87;;;;;;;16.49;44.26;97122.46;1747980;81;21016;-82
2021/10/21 00:36:06;;;;;;;8.03;4.97;;;;;;;16.42;44.62;97122.78;1748006;82;20996;-82
2021/10/21 00:38:31;;;;;;;9.40;5.33;;;;;;;16.37;44.65;97110.12;1747754;81;20928;-85
2021/10/21 00:40:57;;;;;;;7.65;4.97;;;;;;;16.28;45.15;97110.22;1747843;81;21141;-82
2021/10/21 00:43:28;;;;;;;5.95;4.42;;;;;;;16.17;45.58;97101.43;1747670;81;21461;-85
2021/10/21 00:45:58;;;;;;;8.85;4.42;;;;;;;15.99;46.06;97104.91;1719442;82;21048;-82
2021/10/21 00:48:32;;;;;;;7.53;5.35;;;;;;;15.77;46.75;97100.61;1747458;81;21004;-82
2021/10/21 00:50:55;;;;;;;6.65;4.35;;;;;;;15.60;47.14;97117.11;1746306;81;20898;-85
2021/10/21 00:53:21;;;;;;;9.35;4.90;;;;;;;15.26;49.23;97119.53;1747908;81;21112;-85
2021/10/21 00:55:51;;;;;;;8.93;6.62;;;;;;;15.09;49.10;97121.23;1746035;82;21386;-85
2021/10/21 00:58:24;;;;;;;11.53;6.12;;;;;;;14.97;49.82;97120.36;1747861;81;20981;-82
2021/10/21 01:00:48;;;;;;;6.97;4.75;;;;;;;14.80;50.37;97117.16;1744877;82;21063;-85
2021/10/21 01:03:16;;;;;;;7.20;5.72;;;;;;;14.61;51.49;97127.92;1743081;81;21440;-85
2021/10/21 01:05:44;;;;;;;7.75;4.70;;;;;;;14.56;50.75;97125.36;1740473;81;21374;-85
2021/10/21 01:08:11;;;;;;;8.55;4.97;;;;;;;14.50;52.10;97128.59;1740134;81;20992;-82
2021/10/21 01:10:38;;;;;;;8.48;6.17;;;;;;;14.46;51.86;97137.99;1740242;82;20957;-81
2021/10/21 01:13:07;;;;;;;12.33;6.37;;;;;;;14.39;51.79;97132.20;1740620;81;21020;-85
2021/10/21 01:15:36;;;;;;;8.15;5.90;;;;;;;14.24;52.62;97129.44;1739410;81;21351;-86
2021/10/21 01:18:02;;;;;;;10.85;6.03;;;;;;;14.14;52.87;97127.63;1740314;82;21685;-82
2021/10/21 01:20:28;;;;;;;9.30;5.62;;;;;;;14.07;52.64;97125.39;1739998;81;21013;-82
2021/10/21 01:22:54;;;;;;;8.60;5.72;;;;;;;13.99;54.15;97122.12;1740012;81;21441;-82
2021/10/21 01:25:22;;;;;;;7.33;5.58;;;;;;;13.94;53.25;97118.22;1740110;81;21001;-85
2021/10/21 01:27:50;;;;;;;9.88;6.58;;;;;;;13.81;53.48;97115.34;1739980;82;20906;-82
2021/10/21 01:30:21;;;;;;;9.85;5.30;;;;;;;13.60;57.20;97122.57;1740391;81;21430;-85
2021/10/21 01:32:55;;;;;;;7.28;5.20;;;;;;;13.39;56.22;97120.23;1740274;81;20981;-82
2021/10/21 01:35:18;;;;;;;7.90;5.47;;;;;;;12.98;58.71;97111.34;1738522;81;21019;-85
2021/10/21 01:37:46;;;;;;;10.50;6.42;;;;;;;12.86;57.12;97117.16;1740241;81;21013;-85
2021/10/21 01:40:14;;;;;;;9.68;6.05;;;;;;;12.68;57.61;97108.16;1740132;81;21001;-86
2021/10/21 01:42:41;;;;;;;9.10;6.30;;;;;;;12.46;60.44;97108.22;1740460;81;21430;-86
2021/10/21 01:45:25;;;;;;;11.88;7.15;;;;;;;12.32;58.17;97104.27;1740478;81;20965;-85
2021/10/21 01:47:51;;;;;;;10.55;6.50;;;;;;;12.22;58.18;97099.08;1740289;81;21404;-85
2021/10/21 01:50:18;;;;;;;9.98;6.20;;;;;;;12.07;60.24;97094.31;1740059;81;20949;-82
2021/10/21 01:52:46;;;;;;;10.80;7.45;;;;;;;11.92;61.43;97094.70;1740196;81;21037;-85
2021/10/21 01:55:14;;;;;;;8.40;6.30;;;;;;;11.83;61.34;97092.50;1740460;81;21922;-86
2021/10/21 01:57:40;;;;;;;8.20;5.37;;;;;;;11.67;66.42;97093.39;1740147;81;20978;-86
2021/10/21 02:00:07;;;;;;;7.55;5.97;;;;;;;11.58;63.81;97091.97;1740249;81;20873;-86
2021/10/21 02:02:33;;;;;;;9.18;5.90;;;;;;;11.40;66.62;97083.47;1740444;81;20961;-86
2021/10/21 02:05:00;;;;;;;9.10;7.17;;;;;;;11.30;67.17;97087.22;1742902;81;21116;-81
2021/10/21 02:07:26;;;;;;;9.58;5.28;;;;;;;11.23;65.34;97081.97;1742932;82;21270;-85
2021/10/21 02:09:52;;;;;;;8.75;5.40;;;;;;;11.16;65.30;97078.31;1742946;81;20881;-81
2021/10/21 02:12:18;;;;;;;15.72;8.78;;;;;;;11.07;66.34;97079.35;1742970;82;20954;-85
2021/10/21 02:14:46;;;;;;;13.72;7.30;;;;;;;11.01;66.58;97082.72;1742852;81;21008;-81
2021/10/21 02:17:12;;;;;;;8.60;5.75;;;;;;;10.86;70.84;97073.03;1742784;81;20957;-82
2021/10/21 02:19:40;;;;;;;11.60;5.22;;;;;;;10.80;70.78;97075.59;1742881;81;22091;-85
2021/10/21 02:22:06;;;;;;;9.40;5.55;;;;;;;10.77;69.20;97069.44;1742953;81;21020;-86
2021/10/21 02:24:33;;;;;;;9.38;6.35;;;;;;;10.73;69.50;97067.06;1742939;82;21059;-81
2021/10/21 02:26:59;;;;;;;10.88;6.10;;;;;;;10.65;70.56;97063.72;1742738;81;20948;-82
2021/10/21 02:29:25;;;;;;;8.50;6.62;;;;;;;10.57;72.54;97059.80;1742861;82;21008;-82
2021/10/21 02:31:51;;;;;;;10.93;6.90;;;;;;;10.48;72.09;97056.76;1742591;81;21823;-82
2021/10/21 02:34:17;;;;;;;11.05;7.30;;;;;;;10.43;71.17;97057.68;1743373;82;20944;-85
2021/10/21 02:36:47;;;;;;;10.75;7.10;;;;;;;10.23;74.16;97061.57;1742777;81;21418;-85
2021/10/21 02:39:13;;;;;;;13.75;7.42;;;;;;;10.20;70.06;97070.27;1724401;82;20977;-82
2021/10/21 02:41:39;;;;;;;13.35;8.03;;;;;;;10.10;69.88;97071.27;1742606;81;20854;-82
2021/10/21 02:44:05;;;;;;;10.10;6.85;;;;;;;10.10;69.31;97073.18;1724017;82;21105;-85
2021/10/21 02:46:34;;;;;;;10.28;7.10;;;;;;;10.03;71.39;97072.21;1742553;81;21515;-83
2021/10/21 02:48:59;;;;;;;10.90;6.72;;;;;;;9.99;72.47;97064.97;1742702;82;21020;-85
2021/10/21 02:51:25;;;;;;;10.48;6.33;;;;;;;9.92;70.51;97042.39;1742577;81;20865;-82
2021/10/21 02:53:51;;;;;;;8.55;6.33;;;;;;;10.02;70.25;97046.80;1742916;82;21058;-82
2021/10/21 02:56:17;;;;;;;10.43;6.90;;;;;;;9.90;72.21;97036.45;1742688;81;21867;-86
2021/10/21 02:58:43;;;;;;;18.98;9.13;;;;;;;9.90;73.31;97045.92;1742757;82;21040;-82
2021/10/21 03:01:09;;;;;;;12.75;5.65;;;;;;;9.80;74.89;97040.70;1742728;81;21455;-85
2021/10/21 03:03:36;;;;;;;8.13;5.58;;;;;;;9.63;76.39;97032.34;1745929;81;21032;-82
2021/10/21 03:06:02;;;;;;;10.50;6.10;;;;;;;9.63;75.30;97036.41;1750082;80;21020;-81
2021/10/21 03:08:28;;;;;;;8.25;5.95;;;;;;;9.60;74.60;97021.02;1750251;82;21183;-83
2021/10/21 03:10:54;;;;;;;9.35;7.20;;;;;;;9.60;74.60;97021.02;1750186;80;20896;-86
2021/10/21 03:13:20;;;;;;;8.90;5.78;;;;;;;9.65;74.24;97013.91;1750386;81;21048;-85
2021/10/21 03:15:48;;;;;;;19.90;10.00;;;;;;;9.61;72.42;97010.45;1749783;80;20937;-86
2021/10/21 03:18:16;;;;;;;15.60;9.80;;;;;;;9.49;72.21;97011.50;1750247;82;21004;-81
2021/10/21 03:20:41;;;;;;;15.88;7.53;;;;;;;9.45;74.97;97004.26;1749191;80;21198;-86
2021/10/21 03:23:09;;;;;;;9.63;6.47;;;;;;;9.45;74.97;97004.26;1749955;82;20972;-82
2021/10/21 03:25:40;;;;;;;10.75;6.08;;;;;;;9.41;75.22;97000.55;1750020;80;21409;-82
2021/10/21 03:28:09;;;;;;;10.28;7.25;;;;;;;9.35;75.07;97002.53;1749975;81;21423;-86
2021/10/21 03:30:35;;;;;;;9.90;6.42;;;;;;;9.21;77.22;96997.63;1749978;80;20996;-83
2021/10/21 03:33:01;;;;;;;12.13;7.50;;;;;;;9.10;78.18;96994.84;1750322;82;21989;-86
2021/10/21 03:35:27;;;;;;;13.62;8.55;;;;;;;9.07;77.06;96994.89;1750025;80;21092;-85
2021/10/21 03:37:53;;;;;;;10.55;7.85;;;;;;;9.03;77.52;96986.55;1750303;81;21023;-81
2021/10/21 03:40:20;;;;;;;11.65;7.35;;;;;;;9.00;77.58;96987.70;1749810;80;21095;-86
2021/10/21 03:42:46;;;;;;;12.07;7.75;;;;;;;8.97;75.12;96982.34;1750498;82;21024;-86
2021/10/21 03:45:11;;;;;;;11.10;7.37;;;;;;;8.91;78.55;96977.30;1750167;80;21294;-86
2021/10/21 03:47:37;;;;;;;12.68;8.05;;;;;;;8.86;79.61;96973.31;1750467;82;20846;-85
2021/10/21 03:50:04;;;;;;;12.10;8.50;;;;;;;8.83;79.81;96970.66;1750308;80;20917;-82
2021/10/21 03:52:30;;;;;;;11.45;7.72;;;;;;;8.81;79.40;96970.16;1750427;82;21012;-85
2021/10/21 03:54:56;;;;;;;11.53;7.83;;;;;;;8.80;78.54;96969.88;1750457;81;21174;-82
2021/10/21 03:57:23;;;;;;;12.88;8.63;;;;;;;8.80;77.53;96982.03;1750068;80;21051;-85
2021/10/21 03:59:49;;;;;;;9.88;7.75;;;;;;;8.73;79.67;96971.62;1750366;82;21023;-82
2021/10/21 04:02:15;;;;;;;11.97;7.97;;;;;;;8.69;78.31;96974.64;1750114;80;21444;-82
2021/10/21 04:04:41;;;;;;;10.82;7.95;;;;;;;8.67;79.42;96973.34;1734937;80;20892;-86
2021/10/21 04:07:09;;;;;;;13.53;8.23;;;;;;;8.69;78.25;96983.29;1729904;81;20873;-82
2021/10/21 04:09:35;;;;;;;13.28;8.05;;;;;;;8.70;77.80;96974.89;1729983;81;21163;-82
2021/10/21 04:12:01;;;;;;;12.07;7.37;;;;;;;8.66;78.71;96971.73;1729965;81;21335;-86
2021/10/21 04:14:27;;;;;;;10.93;7.35;;;;;;;8.62;77.79;96972.84;1730129;83;21467;-82
2021/10/21 04:16:53;;;;;;;13.32;7.92;;;;;;;8.63;77.84;96976.34;1729715;81;20928;-85
2021/10/21 04:19:19;;;;;;;12.85;8.20;;;;;;;8.55;78.76;96968.94;1730349;83;21011;-85
2021/10/21 04:21:45;;;;;;;11.30;8.38;;;;;;;8.55;77.59;96965.69;1729752;81;21752;-86
2021/10/21 04:24:11;;;;;;;12.35;8.18;;;;;;;8.50;79.14;96962.23;1730126;83;20881;-82
2021/10/21 04:26:37;;;;;;;15.30;8.53;;;;;;;8.41;80.10;96968.30;1729891;81;21369;-82
2021/10/21 04:29:03;;;;;;;13.80;8.50;;;;;;;8.33;79.19;96955.41;1730164;83;21019;-82
2021/10/21 04:31:30;;;;;;;11.57;7.83;;;;;;;8.19;81.98;96938.32;1729912;81;20965;-81
2021/10/21 04:33:57;;;;;;;12.78;8.95;;;;;;;8.18;79.56;96944.27;1730089;83;21756;-86
2021/10/21 04:36:23;;;;;;;16.20;7.80;;;;;;;8.19;79.03;96943.17;1729895;81;21314;-85
2021/10/21 04:38:51;;;;;;;12.30;7.85;;;;;;;8.20;80.58;96935.88;1729819;82;21012;-82
2021/10/21 04:41:17;;;;;;;17.15;9.10;;;;;;;8.22;80.10;96935.06;1729826;81;20829;-82
2021/10/21 04:43:43;;;;;;;16.90;9.18;;;;;;;8.20;79.36;96929.95;1730273;83;21090;-82
2021/10/21 04:46:09;;;;;;;12.03;8.73;;;;;;;8.17;80.25;96917.58;1729923;81;21818;-82
2021/10/21 04:48:35;;;;;;;16.17;9.78;;;;;;;8.12;80.96;96915.77;1730123;83;20887;-81
2021/10/21 04:51:01;;;;;;;19.20;9.63;;;;;;;8.10;81.10;96907.69;1729987;81;21253;-86
2021/10/21 04:53:29;;;;;;;13.05;8.38;;;;;;;8.08;81.63;96901.78;1729880;82;21432;-85
2021/10/21 04:55:55;;;;;;;15.35;8.38;;;;;;;8.01;81.72;96900.78;1729749;81;21039;-86
2021/10/21 04:58:21;;;;;;;25.35;11.38;;;;;;;7.98;80.79;96894.62;1730250;82;21867;-81
2021/10/21 05:00:47;;;;;;;14.70;9.30;;;;;;;7.93;79.94;96887.94;1729845;81;20864;-85
2021/10/21 05:03:13;;;;;;;18.55;12.23;;;;;;;7.93;79.54;96880.65;1730258;81;20971;-82
2021/10/21 05:05:43;;;;;;;14.45;8.60;;;;;;;7.93;79.25;96883.89;1750251;80;20972;-82
2021/10/21 05:08:09;;;;;;;24.50;11.68;;;;;;;7.77;83.32;96862.25;1750478;82;20977;-86
2021/10/21 05:10:35;;;;;;;14.83;9.23;;;;;;;7.76;82.72;96863.34;1750118;80;21137;-86
2021/10/21 05:13:01;;;;;;;17.87;10.85;;;;;;;7.70;80.87;96874.77;1750334;82;20877;-81
2021/10/21 05:15:27;;;;;;;24.60;12.00;;;;;;;7.62;82.30;96868.66;1750352;82;20948;-85
2021/10/21 05:17:54;;;;;;;23.75;13.50;;;;;;;7.62;83.95;96851.94;1750065;80;21024;-85
2021/10/21 05:20:20;;;;;;;20.92;10.60;;;;;;;7.62;82.44;96855.98;1750263;82;21441;-86
2021/10/21 05:22:46;;;;;;;16.82;9.85;;;;;;;7.55;84.49;96849.33;1750057;80;21845;-82
2021/10/21 05:25:12;;;;;;;22.15;11.75;;;;;;;7.51;83.06;96859.07;1750121;82;20912;-82
2021/10/21 05:27:38;;;;;;;22.13;11.95;;;;;;;7.44;83.36;96850.55;1750155;80;21437;-81
2021/10/21 05:30:05;;;;;;;23.05;11.53;;;;;;;7.43;82.41;96837.59;1750138;82;21023;-81
2021/10/21 05:32:31;;;;;;;16.57;11.22;;;;;;;7.39;84.52;96839.82;1750313;80;20921;-81
2021/10/21 05:34:57;;;;;;;21.25;11.88;;;;;;;7.42;82.88;96835.99;1750306;81;21819;-85
2021/10/21 05:37:23;;;;;;;20.97;11.05;;;;;;;7.45;82.80;96848.11;1750040;80;20825;-86
2021/10/21 05:39:51;;;;;;;18.12;11.12;;;;;;;7.42;83.91;96843.28;1749958;81;21004;-82
2021/10/21 05:42:17;;;;;;;18.55;11.80;;;;;;;7.43;82.99;96845.67;1750039;80;20849;-86
2021/10/21 05:44:43;;;;;;;26.85;11.63;;;;;;;7.36;83.95;96838.51;1750384;82;21028;-85
2021/10/21 05:47:09;;;;;;;20.30;12.20;;;;;;;7.38;84.54;96834.17;1750064;80;21122;-86
2021/10/21 05:49:35;;;;;;;27.35;14.98;;;;;;;7.37;83.67;96819.90;1750370;82;20939;-82
2021/10/21 05:52:03;;;;;;;19.17;13.05;;;;;;;7.40;83.05;96815.27;1749391;80;20945;-86
2021/10/21 05:54:29;;;;;;;21.37;11.80;;;;;;;7.47;82.81;96815.73;1750407;82;21044;-81
2021/10/21 05:56:55;;;;;;;23.62;13.35;;;;;;;7.49;85.47;96806.00;1750092;80;20888;-81
2021/10/21 05:59:21;;;;;;;25.97;12.50;;;;;;;7.54;83.65;96810.79;1750278;82;21873;-82
2021/10/21 06:01:49;;;;;;;25.12;12.30;;;;;;;7.54;83.52;96805.41;1749884;80;20877;-82
2021/10/21 06:04:17;;;;;;;28.70;13.08;;;;;;;7.59;82.54;96805.86;1750349;80;20890;-86
2021/10/21 06:06:43;;;;;;;21.77;12.58;;;;;;;7.66;83.14;96802.81;1749898;80;20946;-86
2021/10/21 06:09:09;;;;;;;21.00;12.55;;;;;;;7.69;84.39;96799.53;1750524;82;20948;-84
2021/10/21 06:11:37;;;;;;;22.42;12.45;;;;;;;7.68;83.83;96806.02;1749802;80;20922;-85
2021/10/21 06:14:05;;;;;;;20.80;11.48;;;;;;;7.70;83.59;96795.22;1750306;82;28483;-81
2021/10/21 06:16:32;;;;;;;21.50;13.58;;;;;;;7.74;83.52;96792.19;1753930;81;21464;-86
2021/10/21 06:18:59;;;;;;;21.20;12.47;;;;;;;7.77;83.21;96788.89;1750290;82;20949;-82
2021/10/21 06:21:28;;;;;;;20.75;11.63;;;;;;;7.80;84.89;96772.16;1729282;81;20960;-86
2021/10/21 06:24:02;;;;;;;17.15;10.65;;;;;;;7.91;82.60;96767.41;1750335;82;21729;-82
2021/10/21 06:26:22;;;;;;;21.23;12.00;;;;;;;7.99;82.97;96767.30;1749152;80;20945;-82
2021/10/21 06:28:51;;;;;;;15.20;11.03;;;;;;;8.12;82.40;96764.66;1750175;82;21019;-81
2021/10/21 06:31:18;;;;;;;16.45;10.98;;;;;;;8.28;84.33;96759.80;1750199;80;21071;-85
2021/10/21 06:33:44;;;;;;;20.55;10.85;;;;;;;8.46;82.71;96759.01;1750220;82;21416;-86
2021/10/21 06:36:13;;;;;;;17.57;10.15;;;;;;;8.48;83.30;96745.20;1750517;80;21005;-82
2021/10/21 06:38:42;;;;;;;15.63;11.08;;;;;;;8.56;82.98;96749.13;1749974;82;20834;-85
2021/10/21 06:41:08;;;;;;;24.57;11.70;;;;;;;8.67;82.75;96748.63;1750083;80;21358;-86
2021/10/21 06:43:34;;;;;;;14.95;11.25;;;;;;;8.77;82.80;96744.94;1750470;82;21384;-82
2021/10/21 06:46:02;;;;;;;18.50;11.95;;;;;;;8.87;81.83;96732.59;1750057;80;20894;-85
2021/10/21 06:48:28;;;;;;;18.25;11.18;;;;;;;8.93;82.50;96721.95;1750398;81;22009;-82
2021/10/21 06:50:54;;;;;;;14.68;10.63;;;;;;;9.01;82.36;96721.80;1749984;82;20924;-85
2021/10/21 06:53:20;;;;;;;18.25;10.85;;;;;;;9.12;81.48;96714.28;1750028;80;21300;-86
2021/10/21 06:55:46;;;;;;;16.25;11.25;;;;;;;9.46;81.26;96715.19;1750097;82;20996;-85
2021/10/21 06:58:12;;;;;;;18.32;12.88;;;;;;;10.10;80.06;96705.86;1750094;80;20881;-85
2021/10/21 07:00:43;;;;;;;18.35;12.23;;;;;;;10.84;78.51;96705.32;1749891;82;20889;-85
2021/10/21 07:03:13;;;;;;;18.42;13.08;;;;;;;11.32;77.33;96700.45;1749676;80;21406;-82
2021/10/21 07:05:42;;;;;;;28.20;15.85;;;;;;;11.97;75.22;96694.16;1729143;81;20953;-85
2021/10/21 07:08:10;;;;;;;29.20;16.75;;;;;;;12.41;70.81;96697.61;1750067;80;20957;-85
2021/10/21 07:10:39;;;;;;;21.42;14.87;;;;;;;12.50;70.71;96696.23;1750192;82;21401;-82
2021/10/21 07:13:08;;;;;;;18.90;12.73;;;;;;;12.97;67.95;96692.92;1740800;80;21059;-82
2021/10/21 07:15:38;;;;;;;14.07;8.48;;;;;;;13.14;66.72;96675.16;1749915;82;21020;-85
2021/10/21 07:18:11;;;;;;;23.32;12.33;;;;;;;13.33;65.44;96669.87;1750234;80;20890;-82
2021/10/21 07:20:31;;;;;;;20.55;13.40;;;;;;;13.34;65.36;96657.90;1749628;82;21330;-82
2021/10/21 07:23:05;;;;;;;14.25;9.08;;;;;;;13.21;66.23;96653.72;1750085;80;20969;-85
2021/10/21 07:25:28;;;;;;;25.23;16.60;;;;;;;13.27;65.67;96640.73;1749463;81;21021;-82
2021/10/21 07:28:06;;;;;;;;;;;;;;;;;;;;;
2021/10/21 07:30:26;;;;;;;22.10;13.88;;;;;;;13.28;66.05;96647.77;1748218;80;21415;-85
2021/10/21 07:33:00;;;;;;;25.70;15.18;;;;;;;13.38;66.00;96647.94;1750233;80;20901;-82
2021/10/21 07:35:31;;;;;;;27.55;12.10;;;;;;;13.43;66.73;96644.47;1750524;81;21016;-82
2021/10/21 07:38:01;;;;;;;19.62;14.05;;;;;;;13.67;65.51;96634.82;1749886;80;21571;-83
2021/10/21 07:40:27;;;;;;;17.85;12.35;;;;;;;13.89;65.31;96628.24;1750219;82;20949;-85
2021/10/21 07:42:53;;;;;;;14.58;9.78;;;;;;;13.98;66.25;96604.45;1750179;80;20897;-82
2021/10/21 07:45:19;;;;;;;19.90;11.55;;;;;;;14.08;65.73;96599.93;1750296;82;21441;-82
2021/10/21 07:47:46;;;;;;;12.58;7.90;;;;;;;14.37;64.53;96600.36;1750249;80;20980;-82
2021/10/21 07:50:16;;;;;;;15.72;9.45;;;;;;;14.73;62.92;96593.37;1754196;81;20973;-85
2021/10/21 07:52:51;;;;;;;;;;;;;;;;;;;;;
2021/10/21 07:55:11;;;;;;;23.62;14.40;;;;;;;15.28;61.88;96609.68;1746919;80;21027;-82
2021/10/21 07:57:37;;;;;;;11.40;7.83;;;;;;;15.42;62.46;96620.47;1729175;81;21008;-82
2021/10/21 08:00:11;;;;;;;12.20;8.25;;;;;;;15.54;61.85;96619.63;1750568;82;20976;-82
2021/10/21 08:02:36;;;;;;;13.62;8.25;;;;;;;15.66;61.93;96620.22;1750162;80;21080;-81
2021/10/21 08:05:07;;;;;;;14.60;11.40;;;;;;;15.84;61.20;96607.86;1750203;80;20959;-84
2021/10/21 08:07:43;;;;;;;20.95;14.28;;;;;;;15.99;60.60;96615.88;1750435;82;20949;-85
2021/10/21 08:10:18;;;;;;;21.80;12.27;;;;;;;16.12;60.01;96620.70;1747540;80;20960;-84
2021/10/21 08:12:49;;;;;;;16.35;8.68;;;;;;;16.28;59.31;96625.63;1750397;82;20949;-82
2021/10/21 08:15:14;;;;;;;14.38;7.28;;;;;;;16.44;58.24;96616.88;1750064;80;22023;-82
2021/10/21 08:17:43;;;;;;;8.63;6.22;;;;;;;16.71;56.76;96602.15;1750087;80;20952;-85
2021/10/21 08:20:12;;;;;;;12.73;9.53;;;;;;;16.88;56.44;96597.68;1749515;81;20953;-84
2021/10/21 08:22:46;;;;;;;9.90;7.60;;;;;;;17.00;56.43;96584.46;1750256;80;20910;-85
2021/10/21 08:25:15;;;;;;;8.55;6.05;;;;;;;17.15;56.07;96579.53;1750544;82;20913;-84
2021/10/21 08:27:42;;;;;;;12.65;8.58;;;;;;;17.35;55.41;96594.87;1750138;80;21291;-84
2021/10/21 08:30:11;;;;;;;13.22;9.55;;;;;;;18.08;54.90;96591.08;1750188;82;21009;-84
2021/10/21 08:32:41;;;;;;;10.98;7.33;;;;;;;18.64;52.84;96588.58;1746576;80;20965;-82
2021/10/21 08:35:07;;;;;;;10.10;6.78;;;;;;;18.50;51.20;96591.06;1750753;82;20994;-82
2021/10/21 08:37:35;;;;;;;13.15;7.55;;;;;;;18.40;52.04;96588.93;1750395;80;21003;-82
2021/10/21 08:40:02;;;;;;;10.30;6.85;;;;;;;18.35;52.93;96585.90;1750354;81;21049;-83
2021/10/21 08:42:28;;;;;;;8.68;7.08;;;;;;;18.32;52.95;96585.27;1750313;82;21436;-83
2021/10/21 08:44:56;;;;;;;11.33;6.20;;;;;;;18.32;52.76;96593.49;1750027;80;20929;-84
2021/10/21 08:47:25;;;;;;;13.50;6.27;;;;;;;18.26;51.60;96590.83;1750656;82;20960;-82
2021/10/21 08:49:50;;;;;;;9.43;5.77;;;;;;;18.25;51.68;96585.92;1750009;80;20942;-84
2021/10/21 08:52:18;;;;;;;10.17;5.70;;;;;;;18.31;51.08;96606.99;1726951;82;20993;-82
2021/10/21 08:54:50;;;;;;;8.15;5.72;;;;;;;18.25;50.28;96574.95;1750164;80;21456;-84
2021/10/21 08:57:16;;;;;;;9.35;6.78;;;;;;;18.23;50.61;96585.50;1749839;81;21032;-83
2021/10/21 08:59:44;;;;;;;16.25;6.72;;;;;;;18.23;50.14;96575.12;1750125;80;21543;-81
2021/10/21 09:02:22;;;;;;;9.03;5.83;;;;;;;18.23;50.36;96587.45;1750319;82;20972;-82
2021/10/21 09:05:12;;;;;;;8.33;6.72;;;;;;;18.23;50.93;96614.87;1749672;80;21103;-83
2021/10/21 09:10:11;;;;;;;8.65;5.37;;;;;;;18.50;49.28;96644.55;1750445;82;20969;-83
2021/10/21 09:12:46;;;;;;;10.53;5.67;;;;;;;18.80;48.91;96685.30;1750613;82;21024;-83
2021/10/21 09:15:16;;;;;;;10.20;6.28;;;;;;;19.10;47.88;96681.29;1749274;81;20905;-83
2021/10/21 09:17:43;;;;;;;7.53;5.15;;;;;;;19.09;47.91;96705.78;1749415;81;21461;-83
2021/10/21 09:20:45;;;;;;;8.30;5.67;;;;;;;19.09;48.91;96716.77;1750032;80;20893;-83
2021/10/21 09:23:05;;;;;;;8.15;7.00;;;;;;;18.93;48.48;96746.86;1748030;80;20930;-83
2021/10/21 09:25:30;;;;;;;8.58;6.22;;;;;;;18.81;49.15;96784.30;1750357;81;20941;-82
2021/10/21 09:27:58;;;;;;;12.03;6.35;;;;;;;18.57;48.49;96787.31;1750275;80;21074;-81
2021/10/21 09:30:28;;;;;;;;;;;;;;;18.57;49.66;96766.74;1753077;82;21152;-81
2021/10/21 09:33:07;;;;;;;10.88;7.03;;;;;;;18.52;49.62;96754.09;1750675;80;20142;-81
2021/10/21 09:35:37;;;;;;;9.20;7.12;;;;;;;18.55;48.73;96741.63;1750271;82;21330;-83
2021/10/21 09:38:05;;;;;;;7.65;6.22;;;;;;;18.39;49.22;96736.22;1750039;80;21454;-83
2021/10/21 09:40:34;;;;;;;8.93;6.00;;;;;;;18.30;49.87;96743.88;1750935;82;20898;-81
2021/10/21 09:43:07;;;;;;;10.82;6.10;;;;;;;18.27;50.59;96743.20;1750245;80;21107;-81
2021/10/21 09:45:40;;;;;;;8.23;5.72;;;;;;;18.30;50.17;96745.23;1750415;81;21165;-84
2021/10/21 09:48:07;;;;;;;7.65;5.85;;;;;;;18.33;50.68;96734.91;1750677;80;21027;-84
2021/10/21 09:50:40;;;;;;;7.53;5.20;;;;;;;18.38;49.93;96730.52;1750132;80;21173;-81
2021/10/21 09:53:22;;;;;;;9.43;6.53;;;;;;;18.33;50.26;96726.69;1749893;81;21488;-83
2021/10/21 09:56:03;;;;;;;10.08;6.45;;;;;;;18.30;50.62;96728.21;1749926;80;21017;-83
2021/10/21 09:58:49;;;;;;;15.13;9.05;;;;;;;18.44;50.13;96731.00;1750249;82;20969;-84
2021/10/21 10:01:15;;;;;;;11.43;7.03;;;;;;;18.45;50.46;96737.50;1748917;80;21346;-82
2021/10/21 10:03:46;;;;;;;9.45;6.12;;;;;;;18.49;51.08;96746.60;1750249;82;20893;-81
2021/10/21 10:06:12;;;;;;;6.42;5.40;;;;;;;18.55;51.13;96751.23;1750079;80;20909;-81
2021/10/21 10:08:39;;;;;;;10.85;6.92;;;;;;;18.46;51.25;96758.89;1749985;82;21016;-81
2021/10/21 10:11:12;;;;;;;6.90;5.47;;;;;;;18.54;50.90;96759.22;1750049;80;20985;-83
2021/10/21 10:13:41;;;;;;;8.08;5.53;;;;;;;18.58;50.41;96766.38;1750221;81;20973;-83
2021/10/21 10:16:07;;;;;;;5.70;4.65;;;;;;;18.52;50.83;96762.33;1749454;80;21461;-82
2021/10/21 10:18:41;;;;;;;8.27;5.10;;;;;;;18.46;50.47;96768.48;1750558;82;20992;-81
2021/10/21 10:21:29;;;;;;;9.33;5.53;;;;;;;18.37;50.77;96776.90;1750236;80;21804;-81
2021/10/21 10:24:13;;;;;;;7.87;5.67;;;;;;;18.31;50.47;96772.88;1750142;81;20965;-83
2021/10/21 10:26:46;;;;;;;6.65;5.03;;;;;;;18.25;50.78;96781.95;1750215;80;20942;-81
2021/10/21 10:29:14;;;;;;;7.95;4.72;;;;;;;18.24;50.93;96780.36;1750337;82;20972;-83
2021/10/21 10:31:47;;;;;;;9.40;6.08;;;;;;;18.19;51.06;96790.81;1749977;80;21409;-80
2021/10/21 10:34:35;;;;;;;8.60;5.90;;;;;;;18.13;51.55;96786.78;1750219;81;21273;-81
2021/10/21 10:37:16;;;;;;;14.07;8.30;;;;;;;18.05;51.40;96792.67;1750117;80;21334;-82
2021/10/21 10:39:58;;;;;;;7.95;5.85;;;;;;;18.06;51.66;96810.71;1736677;81;20905;-81
2021/10/21 10:42:35;;;;;;;8.15;6.12;;;;;;;18.00;52.23;96807.44;1750044;80;21036;-81
2021/10/21 10:45:03;;;;;;;7.47;5.60;;;;;;;17.96;52.35;96806.58;1750301;82;21044;-81
2021/10/21 10:47:52;;;;;;;9.68;5.90;;;;;;;17.94;52.16;96824.51;1750141;80;21293;-83
2021/10/21 10:50:28;;;;;;;14.63;6.90;;;;;;;17.83;52.80;96853.61;1750162;80;20965;-81
2021/10/21 10:53:06;;;;;;;8.23;6.30;;;;;;;17.73;52.94;96880.97;1750319;82;20961;-81
2021/10/21 10:55:48;;;;;;;7.50;5.92;;;;;;;17.57;53.28;96893.25;1748342;80;20917;-81
2021/10/21 10:58:20;;;;;;;6.65;5.37;;;;;;;17.36;53.54;96888.03;1750662;82;20941;-81
2021/10/21 11:00:55;;;;;;;11.68;8.68;;;;;;;17.17;53.81;96894.14;1744515;80;21645;-83
2021/10/21 11:03:41;;;;;;;8.70;6.80;;;;;;;17.08;53.98;96879.03;1750208;82;20961;-81
2021/10/21 11:06:24;;;;;;;7.70;6.10;;;;;;;17.01;54.12;96891.97;1750131;80;21032;-83
2021/10/21 11:08:58;;;;;;;10.73;5.67;;;;;;;16.93;54.51;96894.27;1696702;82;20918;-84
2021/10/21 11:11:55;;;;;;;11.93;6.72;;;;;;;16.86;54.62;96898.97;1750243;80;21004;-83
2021/10/21 11:14:46;;;;;;;11.03;6.10;;;;;;;16.85;54.75;96880.96;1749749;80;21318;-84
2021/10/21 11:17:13;;;;;;;8.65;6.28;;;;;;;16.93;54.85;96899.75;1730025;81;20889;-81
2021/10/21 11:19:45;;;;;;;10.45;6.72;;;;;;;16.96;54.73;96912.72;1750401;82;21009;-84
2021/10/21 11:22:26;;;;;;;12.63;7.58;;;;;;;16.90;54.84;96912.16;1750353;80;20934;-82
2021/10/21 11:24:59;;;;;;;19.90;7.78;;;;;;;16.98;54.78;96926.05;1754073;81;20902;-82
2021/10/21 11:27:39;;;;;;;12.00;8.50;;;;;;;16.91;54.75;96916.48;1750143;80;21313;-82
2021/10/21 11:30:23;;;;;;;7.62;5.97;;;;;;;16.87;54.89;96892.92;1750211;82;21422;-81
2021/10/21 11:32:51;;;;;;;23.10;7.03;;;;;;;16.79;55.01;96894.66;1745838;81;20999;-81
2021/10/21 11:35:28;;;;;;;8.68;6.85;;;;;;;16.83;54.85;96896.11;1750503;82;21004;-81
2021/10/21 11:37:59;;;;;;;10.20;6.42;;;;;;;16.76;55.19;96902.20;1750289;82;21055;-84
2021/10/21 11:40:37;;;;;;;7.75;5.58;;;;;;;16.75;55.33;96880.09;1729931;82;21221;-84
2021/10/21 11:43:23;;;;;;;8.70;5.53;;;;;;;16.88;54.89;96867.16;1749680;81;21063;-84
2021/10/21 11:46:04;;;;;;;8.28;5.90;;;;;;;16.70;55.16;96854.91;1750372;80;20969;-82